Nyk Arcadia — 3EXI5 — position and weather

sailwx.info

Track history (hours):
 
Tides and Currents Weather Stations Pressure Air Temp Water Temp Dewpoint Dewpoint Depression Visibility Wind Speed Wind Dir Waves Ship Positions

Nyk Arcadia

Last reported at 2017-Nov-16 06:31 UTC. Time now 2017-Nov-24 07:41 UTC.
Position N 30°44' E 032°20'.
Warning: this ship's position is 8 days out of date.

Length 332 m; draft 13.7 m.

Type: Other ship. MMSI: 353523986.

Date/timePositionNaut miles runAvg speedWind from/ knotsBaromVisibWave heightAir tempDewpointWater temp
2017-Nov-16 06:31N 30°44' E 032°20'0 8.6
2017-Nov-16 06:30N 30°44' E 032°20'54 3.7
2017-Nov-15 15:47N 31°37' E 032°06'617.2
2017-Nov-15 15:28N 31°41' E 032°02'  
2017-Nov-11 12:10N 36°01' W 005°13'421.9
2017-Nov-11 12:00N 36°00' W 005°17'1122.7
2017-Nov-11 11:30N 35°57' W 005°30'19119.0
2017-Nov-11 01:29N 36°37' W 009°22'3418.6
2017-Nov-10 23:40N 37°08' W 009°40'319.3
2017-Nov-10 23:30N 37°11' W 009°41'1019.2
2017-Nov-10 22:58N 37°21' W 009°44'919.7
2017-Nov-10 22:31N 37°30' W 009°46'1019.6
2017-Nov-10 22:00N 37°39' W 009°49'1019.4
2017-Nov-10 21:30N 37°49' W 009°51'1019.6
2017-Nov-10 21:00N 37°58' W 009°55'1019.4
2017-Nov-10 20:30N 38°08' W 009°57'1019.5
2017-Nov-10 20:00N 38°17' W 010°00'1019.3
2017-Nov-10 19:30N 38°27' W 010°03'1019.5
2017-Nov-10 19:01N 38°36' W 010°06'919.0
2017-Nov-10 18:30N 38°45' W 010°08'1019.0
2017-Nov-10 18:01N 38°55' W 010°09'1019.0
2017-Nov-10 17:30N 39°04' W 010°09'1019.2
2017-Nov-10 17:00N 39°14' W 010°08'1019.8
2017-Nov-10 16:31N 39°24' W 010°07'1019.5
2017-Nov-10 16:00N 39°34' W 010°06'54918.9
2017-Nov-09 10:56N 48°17' W 006°15'1819.9
2017-Nov-09 10:03N 48°33' W 006°04'120.5
2017-Nov-09 10:00N 48°34' W 006°03'1019.6
2017-Nov-09 09:29N 48°43' W 005°56'1019.0
2017-Nov-09 08:57N 48°52' W 005°49'2017.0
2017-Nov-09 07:45N 49°03' W 005°23'517.0
2017-Nov-09 07:26N 49°06' W 005°16'817.1
2017-Nov-09 06:59N 49°09' W 005°05'7318.4
2017-Nov-09 03:02N 49°45' W 003°28'120.0
2017-Nov-09 03:00N 49°46' W 003°27'1019.9
2017-Nov-09 02:31N 49°50' W 003°14'1019.6
2017-Nov-09 02:00N 49°55' W 003°00'918.9
2017-Nov-09 01:30N 49°59' W 002°47'918.4
2017-Nov-09 01:00N 50°01' W 002°33'1916.7
2017-Nov-08 23:53N 50°00' W 002°04'615.6
2017-Nov-08 23:30N 49°59' W 001°55'815.4
2017-Nov-08 23:00N 49°56' W 001°44'815.3
2017-Nov-08 22:30N 49°54' W 001°32'815.3
2017-Nov-08 22:00N 49°52' W 001°21'815.1
2017-Nov-08 21:30N 49°50' W 001°09'816.3
2017-Nov-08 21:00N 49°46' W 000°58'917.9
2017-Nov-08 20:30N 49°43' W 000°45'918.8
2017-Nov-08 20:00N 49°39' W 000°32'1019.1
2017-Nov-08 19:30N 49°35' W 000°19'816.4
2017-Nov-08 19:00N 49°31' W 000°07'612.2
2017-Nov-08 18:30N 49°30' E 000°02'5 9.4
2017-Nov-08 18:00N 49°28' E 000°08'1 2.1
2017-Nov-08 17:30N 49°27' E 000°10'0 0.0
2017-Nov-08 17:00N 49°27' E 000°10'0 0.0
2017-Nov-08 16:30N 49°27' E 000°10'0 0.0
2017-Nov-08 16:00N 49°27' E 000°10'0 0.0
2017-Nov-08 15:30N 49°27' E 000°10'0 0.0
2017-Nov-08 15:00N 49°27' E 000°10'0 0.0
2017-Nov-08 14:30N 49°27' E 000°10'0 0.0
2017-Nov-08 14:00N 49°27' E 000°10'0 0.0
2017-Nov-08 13:30N 49°27' E 000°10'0 0.0
2017-Nov-08 13:00N 49°27' E 000°10'0 0.0
2017-Nov-08 12:30N 49°27' E 000°10'0 0.0
2017-Nov-08 12:00N 49°27' E 000°10'0 0.0
2017-Nov-08 11:30N 49°27' E 000°10'0 0.0
2017-Nov-08 11:00N 49°27' E 000°10'0 0.0
2017-Nov-08 10:30N 49°27' E 000°10'0 0.0
2017-Nov-08 10:00N 49°27' E 000°10'0 0.0
2017-Nov-08 09:30N 49°27' E 000°10'0 0.0
2017-Nov-08 09:00N 49°27' E 000°10'0 0.0
2017-Nov-08 08:30N 49°27' E 000°10'0 0.0
2017-Nov-08 08:00N 49°27' E 000°10'0 0.0
2017-Nov-08 07:30N 49°27' E 000°10'0 0.0
2017-Nov-08 07:00N 49°27' E 000°10'0 0.0
2017-Nov-08 06:30N 49°27' E 000°10'0 0.0
2017-Nov-08 06:00N 49°27' E 000°10'0 0.0
2017-Nov-08 05:30N 49°27' E 000°10'0 0.0
2017-Nov-08 05:00N 49°27' E 000°10'0 0.0
2017-Nov-08 04:30N 49°27' E 000°10'0 0.0
2017-Nov-08 04:00N 49°27' E 000°10'0 0.0
2017-Nov-08 03:30N 49°27' E 000°10'0 0.0
2017-Nov-08 03:00N 49°27' E 000°10'0 0.0
2017-Nov-08 02:30N 49°27' E 000°10'0 0.0
2017-Nov-08 02:00N 49°27' E 000°10'0 0.0
2017-Nov-08 01:30N 49°27' E 000°10'0 0.0
2017-Nov-08 01:00N 49°27' E 000°10'0 0.0
2017-Nov-08 00:30N 49°27' E 000°10'0 0.0
2017-Nov-08 00:00N 49°27' E 000°10'0 0.0
2017-Nov-07 23:30N 49°27' E 000°10'0 0.0
2017-Nov-07 23:00N 49°27' E 000°10'0 0.0
2017-Nov-07 22:30N 49°27' E 000°10'0 0.0
2017-Nov-07 22:00N 49°27' E 000°10'0 0.0
2017-Nov-07 21:30N 49°27' E 000°10'0 0.0
2017-Nov-07 21:00N 49°27' E 000°10'0 0.0
2017-Nov-07 20:30N 49°27' E 000°10'0 0.2
2017-Nov-07 20:00N 49°27' E 000°10'2 4.0
2017-Nov-07 19:30N 49°28' E 000°07'510.6
2017-Nov-07 19:00N 49°30' W 000°01'5 9.8
2017-Nov-07 18:30N 49°32' W 000°08'714.1
2017-Nov-07 18:00N 49°34' W 000°18'816.7
2017-Nov-07 17:30N 49°42' W 000°24'917.8
2017-Nov-07 17:00N 49°50' W 000°30'917.6
2017-Nov-07 16:30N 49°58' W 000°35'917.5
2017-Nov-07 16:00N 50°06' W 000°41'917.5
2017-Nov-07 15:30N 50°14' W 000°46'1417.9
2017-Nov-07 14:42N 50°27' W 000°55'517.5
2017-Nov-07 14:26N 50°31' W 000°58'716.0
2017-Nov-07 14:00N 50°38' W 000°57'4 8.0
2017-Nov-07 13:30N 50°42' W 000°57'713.5
2017-Nov-07 13:01N 50°45' W 001°07'714.0
2017-Nov-07 12:30N 50°47' W 001°18'4 7.7
2017-Nov-07 12:00N 50°50' W 001°19'4 8.5
2017-Nov-07 11:30N 50°53' W 001°24'2 3.0
2017-Nov-07 10:54N 50°54' W 001°27'1 0.1
2017-Nov-07 01:40N 50°55' W 001°28'0 0.0
2017-Nov-07 01:28N 50°55' W 001°28'0 0.0
2017-Nov-07 00:55N 50°55' W 001°28'0 0.0
2017-Nov-07 00:28N 50°55' W 001°28'0 0.0
2017-Nov-06 23:55N 50°55' W 001°28'0 0.0
2017-Nov-06 23:28N 50°55' W 001°28'0 0.0
2017-Nov-06 22:58N 50°55' W 001°28'0 0.0
2017-Nov-06 22:28N 50°55' W 001°28'0 0.0
2017-Nov-06 21:46N 50°55' W 001°28'0 0.0
2017-Nov-06 21:28N 50°55' W 001°28'0 0.0
2017-Nov-06 20:58N 50°55' W 001°28'0 0.0
2017-Nov-06 20:25N 50°55' W 001°28'  
Track history (hours):
 
Tides and Currents Weather Stations Pressure Air Temp Water Temp Dewpoint Dewpoint Depression Visibility Wind Speed Wind Dir Waves Ship Positions

Nyk Arcadia

Last reported at 2017-Nov-16 06:31 UTC. Time now 2017-Nov-24 07:41 UTC.
Position N 30°44' E 032°20'.
Warning: this ship's position is 8 days out of date.

Length 332 m; draft 13.7 m.

Type: Other ship. MMSI: 353523986.

Date/timePositionNaut miles runAvg speedWind from/ knotsBaromVisibWave heightAir tempDewpointWater temp
2017-Nov-16 06:31N 30°44' E 032°20'0 8.6
2017-Nov-16 06:30N 30°44' E 032°20'54 3.7
2017-Nov-15 15:47N 31°37' E 032°06'617.2
2017-Nov-15 15:28N 31°41' E 032°02'  
2017-Nov-11 12:10N 36°01' W 005°13'421.9
2017-Nov-11 12:00N 36°00' W 005°17'1122.7
2017-Nov-11 11:30N 35°57' W 005°30'19119.0
2017-Nov-11 01:29N 36°37' W 009°22'3418.6
2017-Nov-10 23:40N 37°08' W 009°40'319.3
2017-Nov-10 23:30N 37°11' W 009°41'1019.2
2017-Nov-10 22:58N 37°21' W 009°44'919.7
2017-Nov-10 22:31N 37°30' W 009°46'1019.6
2017-Nov-10 22:00N 37°39' W 009°49'1019.4
2017-Nov-10 21:30N 37°49' W 009°51'1019.6
2017-Nov-10 21:00N 37°58' W 009°55'1019.4
2017-Nov-10 20:30N 38°08' W 009°57'1019.5
2017-Nov-10 20:00N 38°17' W 010°00'1019.3
2017-Nov-10 19:30N 38°27' W 010°03'1019.5
2017-Nov-10 19:01N 38°36' W 010°06'919.0
2017-Nov-10 18:30N 38°45' W 010°08'1019.0
2017-Nov-10 18:01N 38°55' W 010°09'1019.0
2017-Nov-10 17:30N 39°04' W 010°09'1019.2
2017-Nov-10 17:00N 39°14' W 010°08'1019.8
2017-Nov-10 16:31N 39°24' W 010°07'1019.5
2017-Nov-10 16:00N 39°34' W 010°06'54918.9
2017-Nov-09 10:56N 48°17' W 006°15'1819.9
2017-Nov-09 10:03N 48°33' W 006°04'120.5
2017-Nov-09 10:00N 48°34' W 006°03'1019.6
2017-Nov-09 09:29N 48°43' W 005°56'1019.0
2017-Nov-09 08:57N 48°52' W 005°49'2017.0
2017-Nov-09 07:45N 49°03' W 005°23'517.0
2017-Nov-09 07:26N 49°06' W 005°16'817.1
2017-Nov-09 06:59N 49°09' W 005°05'7318.4
2017-Nov-09 03:02N 49°45' W 003°28'120.0
2017-Nov-09 03:00N 49°46' W 003°27'1019.9
2017-Nov-09 02:31N 49°50' W 003°14'1019.6
2017-Nov-09 02:00N 49°55' W 003°00'918.9
2017-Nov-09 01:30N 49°59' W 002°47'918.4
2017-Nov-09 01:00N 50°01' W 002°33'1916.7
2017-Nov-08 23:53N 50°00' W 002°04'615.6
2017-Nov-08 23:30N 49°59' W 001°55'815.4
2017-Nov-08 23:00N 49°56' W 001°44'815.3
2017-Nov-08 22:30N 49°54' W 001°32'815.3
2017-Nov-08 22:00N 49°52' W 001°21'815.1
2017-Nov-08 21:30N 49°50' W 001°09'816.3
2017-Nov-08 21:00N 49°46' W 000°58'917.9
2017-Nov-08 20:30N 49°43' W 000°45'918.8
2017-Nov-08 20:00N 49°39' W 000°32'1019.1
2017-Nov-08 19:30N 49°35' W 000°19'816.4
2017-Nov-08 19:00N 49°31' W 000°07'612.2
2017-Nov-08 18:30N 49°30' E 000°02'5 9.4
2017-Nov-08 18:00N 49°28' E 000°08'1 2.1
2017-Nov-08 17:30N 49°27' E 000°10'0 0.0
2017-Nov-08 17:00N 49°27' E 000°10'0 0.0
2017-Nov-08 16:30N 49°27' E 000°10'0 0.0
2017-Nov-08 16:00N 49°27' E 000°10'0 0.0
2017-Nov-08 15:30N 49°27' E 000°10'0 0.0
2017-Nov-08 15:00N 49°27' E 000°10'0 0.0
2017-Nov-08 14:30N 49°27' E 000°10'0 0.0
2017-Nov-08 14:00N 49°27' E 000°10'0 0.0
2017-Nov-08 13:30N 49°27' E 000°10'0 0.0
2017-Nov-08 13:00N 49°27' E 000°10'0 0.0
2017-Nov-08 12:30N 49°27' E 000°10'0 0.0
2017-Nov-08 12:00N 49°27' E 000°10'0 0.0
2017-Nov-08 11:30N 49°27' E 000°10'0 0.0
2017-Nov-08 11:00N 49°27' E 000°10'0 0.0
2017-Nov-08 10:30N 49°27' E 000°10'0 0.0
2017-Nov-08 10:00N 49°27' E 000°10'0 0.0
2017-Nov-08 09:30N 49°27' E 000°10'0 0.0
2017-Nov-08 09:00N 49°27' E 000°10'0 0.0
2017-Nov-08 08:30N 49°27' E 000°10'0 0.0
2017-Nov-08 08:00N 49°27' E 000°10'0 0.0
2017-Nov-08 07:30N 49°27' E 000°10'0 0.0
2017-Nov-08 07:00N 49°27' E 000°10'0 0.0
2017-Nov-08 06:30N 49°27' E 000°10'0 0.0
2017-Nov-08 06:00N 49°27' E 000°10'0 0.0
2017-Nov-08 05:30N 49°27' E 000°10'0 0.0
2017-Nov-08 05:00N 49°27' E 000°10'0 0.0
2017-Nov-08 04:30N 49°27' E 000°10'0 0.0
2017-Nov-08 04:00N 49°27' E 000°10'0 0.0
2017-Nov-08 03:30N 49°27' E 000°10'0 0.0
2017-Nov-08 03:00N 49°27' E 000°10'0 0.0
2017-Nov-08 02:30N 49°27' E 000°10'0 0.0
2017-Nov-08 02:00N 49°27' E 000°10'0 0.0
2017-Nov-08 01:30N 49°27' E 000°10'0 0.0
2017-Nov-08 01:00N 49°27' E 000°10'0 0.0
2017-Nov-08 00:30N 49°27' E 000°10'0 0.0
2017-Nov-08 00:00N 49°27' E 000°10'0 0.0
2017-Nov-07 23:30N 49°27' E 000°10'0 0.0
2017-Nov-07 23:00N 49°27' E 000°10'0 0.0
2017-Nov-07 22:30N 49°27' E 000°10'0 0.0
2017-Nov-07 22:00N 49°27' E 000°10'0 0.0
2017-Nov-07 21:30N 49°27' E 000°10'0 0.0
2017-Nov-07 21:00N 49°27' E 000°10'0 0.0
2017-Nov-07 20:30N 49°27' E 000°10'0 0.2
2017-Nov-07 20:00N 49°27' E 000°10'2 4.0
2017-Nov-07 19:30N 49°28' E 000°07'510.6
2017-Nov-07 19:00N 49°30' W 000°01'5 9.8
2017-Nov-07 18:30N 49°32' W 000°08'714.1
2017-Nov-07 18:00N 49°34' W 000°18'816.7
2017-Nov-07 17:30N 49°42' W 000°24'917.8
2017-Nov-07 17:00N 49°50' W 000°30'917.6
2017-Nov-07 16:30N 49°58' W 000°35'917.5
2017-Nov-07 16:00N 50°06' W 000°41'917.5
2017-Nov-07 15:30N 50°14' W 000°46'1417.9
2017-Nov-07 14:42N 50°27' W 000°55'517.5
2017-Nov-07 14:26N 50°31' W 000°58'716.0
2017-Nov-07 14:00N 50°38' W 000°57'4 8.0
2017-Nov-07 13:30N 50°42' W 000°57'713.5
2017-Nov-07 13:01N 50°45' W 001°07'714.0
2017-Nov-07 12:30N 50°47' W 001°18'4 7.7
2017-Nov-07 12:00N 50°50' W 001°19'4 8.5
2017-Nov-07 11:30N 50°53' W 001°24'2 3.0
2017-Nov-07 10:54N 50°54' W 001°27'1 0.1
2017-Nov-07 01:40N 50°55' W 001°28'0 0.0
2017-Nov-07 01:28N 50°55' W 001°28'0 0.0
2017-Nov-07 00:55N 50°55' W 001°28'0 0.0
2017-Nov-07 00:28N 50°55' W 001°28'0 0.0
2017-Nov-06 23:55N 50°55' W 001°28'0 0.0
2017-Nov-06 23:28N 50°55' W 001°28'0 0.0
2017-Nov-06 22:58N 50°55' W 001°28'0 0.0
2017-Nov-06 22:28N 50°55' W 001°28'0 0.0
2017-Nov-06 21:46N 50°55' W 001°28'0 0.0
2017-Nov-06 21:28N 50°55' W 001°28'0 0.0
2017-Nov-06 20:58N 50°55' W 001°28'0 0.0
2017-Nov-06 20:25N 50°55' W 001°28'  

Dump ship's entire track history